YLHI

Lord Howe Island Airport

Airport
ICAO code
YLHI
IATA Code
LDH
Summary
ICAO Region
APAC
ICAO Territory
Location

Lord Howe Island, New South Wales

Serving
Lord Howe Island
Elevation
5 ft
Coordinates
31° 32' 18" S , 159° 4' 37" E
KCC
Metar
YLHI 221800Z AUTO 03017KT 8000 // OVC011 25/25 Q1012 RF00.0////./ DL-S/DL-SW/DL-W

Airport on Lord Howe Island, part of New South Wales, Australia.

Airport map

Aerial View

SKYbrary Partners:

Safety knowledge contributed by: